Aviation Digital Data Service (ADDS)

Output produced by TAFs form (0221 UTC 18 December 2014)
found at http://aviationweather.gov/adds/tafs/
 
KPUB 172340Z 1800/1824 VRB06KT P6SM VCSH SCT050 BKN100 
     FM180500 VRB05KT P6SM SCT040 BKN070 
     FM181900 10008KT P6SM SCT050 SCT100